Loreto, Mexico

3:15 PM MDT on July 05, 2015 (GMT -0600)
Loreto International | | Change Station
CLOSE
Current Station
Airport
Location: Loreto,
Elevation: 23 ft
Nearby Weather Stations

Elev 23 ft 26.02 °N, 111.35 °W | Updated 23 minutes ago

Partly Cloudy
Partly Cloudy
91 °F
Feels Like 105 °F
N
12
Wind Variable Wind from ESE

Today
High -- | Low -- °F
--% Chance of Precip.
Yesterday
High -- | Low -- °F
Precip. -- in
6:38 AM 8:21 PM
Waning Gibbous, 82% visible
Pressure 29.84 in
Visibility 8.0 miles
Clouds Few 8000 ft
Few 21000 ft
Heat Index 105 °F
Dew Point 77 °F
Humidity 63%
Rainfall 0.00 in
Snow Depth Not available.
UV 11 out of 12
Pollen Not available.
Air Quality Not available.
Flu Activity Not available.
METAR MMLT 052052Z 12010KT 8SM FEW080 FEW210 33/25 A2984 RMK SLP105 8/041

More Conditions Fewer Conditions

Pressure 29.84 in
Visibility 8.0 miles
Clouds Few 8000 ft
Few 21000 ft
Heat Index 105 °F
Dew Point 77 °F
Humidity 63%
Rainfall 0.00 in
Snow Depth Not available.
UV 11 out of 12
Pollen Not available.
Air Quality Not available.
Flu Activity Not available.
METAR MMLT 052052Z 12010KT 8SM FEW080 FEW210 33/25 A2984 RMK SLP105 8/041

More Conditions Fewer Conditions

10-Day Weather Forecast

×

Almanac

Astronomy

Jul. 05, 2015 Rise Set
Actual Time
Civil Twilight
Nautical Twilight
Astronomical Twilight
Moon
Length of Visible Light
Length of Day
Tomorrow will be .
, % of the Moon is Illuminated

Today's Extremes

Country Highs Country Lows

Community

WunderPhotos

Upload Photos

1,835,393 photos uploaded!

WunderBlogs® & News

Nearby

Air Quality

  Air Quality AQ Index Pollutant
Not available.

Snow Depth

Station Depth Elevation

Earthquake Activity

City Distance Mag. Time & Date
Minimum magnitude displayed is 2.5.

Coastal Water Temperatures

Place Temperature

Stations

Nearby Weather Stations

Station Location Temp. Windchill Dew Point Humidity Wind Precip. Elev Updated Type